sensor_id;sensor_type;location;lat;lon;timestamp;P1;durP1;ratioP1;P2;durP2;ratioP2
59788;SDS011;47353;51.614;5.530;2023-03-02T00:01:17;12.47;;;6.80;;
59788;SDS011;47353;51.614;5.530;2023-03-02T00:03:43;10.03;;;6.90;;
59788;SDS011;47353;51.614;5.530;2023-03-02T00:06:08;10.67;;;7.03;;
59788;SDS011;47353;51.614;5.530;2023-03-02T00:08:34;12.03;;;6.70;;
59788;SDS011;47353;51.614;5.530;2023-03-02T00:11:01;13.20;;;7.50;;
59788;SDS011;47353;51.614;5.530;2023-03-02T00:13:29;11.60;;;7.03;;
59788;SDS011;47353;51.614;5.530;2023-03-02T00:15:58;9.67;;;6.50;;
59788;SDS011;47353;51.614;5.530;2023-03-02T00:18:23;13.53;;;7.20;;
59788;SDS011;47353;51.614;5.530;2023-03-02T00:20:49;11.43;;;6.97;;
59788;SDS011;47353;51.614;5.530;2023-03-02T00:23:15;11.07;;;7.10;;
59788;SDS011;47353;51.614;5.530;2023-03-02T00:25:40;11.40;;;7.23;;
59788;SDS011;47353;51.614;5.530;2023-03-02T00:28:05;14.23;;;7.43;;
59788;SDS011;47353;51.614;5.530;2023-03-02T00:30:31;12.83;;;7.20;;
59788;SDS011;47353;51.614;5.530;2023-03-02T00:32:56;13.03;;;7.10;;
59788;SDS011;47353;51.614;5.530;2023-03-02T00:35:22;14.23;;;7.43;;
59788;SDS011;47353;51.614;5.530;2023-03-02T00:37:50;13.50;;;7.60;;
59788;SDS011;47353;51.614;5.530;2023-03-02T00:40:16;11.47;;;7.33;;
59788;SDS011;47353;51.614;5.530;2023-03-02T00:42:42;12.03;;;7.73;;
59788;SDS011;47353;51.614;5.530;2023-03-02T00:45:08;12.07;;;7.00;;
59788;SDS011;47353;51.614;5.530;2023-03-02T00:47:35;13.07;;;7.47;;
59788;SDS011;47353;51.614;5.530;2023-03-02T00:50:01;12.50;;;7.23;;
59788;SDS011;47353;51.614;5.530;2023-03-02T00:52:28;12.43;;;7.43;;
59788;SDS011;47353;51.614;5.530;2023-03-02T00:54:54;13.27;;;8.07;;
59788;SDS011;47353;51.614;5.530;2023-03-02T00:57:20;14.80;;;7.70;;
59788;SDS011;47353;51.614;5.530;2023-03-02T00:59:45;12.53;;;7.30;;
59788;SDS011;47353;51.614;5.530;2023-03-02T01:02:10;13.77;;;8.10;;
59788;SDS011;47353;51.614;5.530;2023-03-02T01:04:37;13.83;;;8.13;;
59788;SDS011;47353;51.614;5.530;2023-03-02T01:07:08;14.53;;;8.03;;
59788;SDS011;47353;51.614;5.530;2023-03-02T01:09:36;13.90;;;8.00;;
59788;SDS011;47353;51.614;5.530;2023-03-02T01:12:03;13.40;;;7.67;;
59788;SDS011;47353;51.614;5.530;2023-03-02T01:14:29;11.50;;;7.43;;
59788;SDS011;47353;51.614;5.530;2023-03-02T01:16:55;13.80;;;7.90;;
59788;SDS011;47353;51.614;5.530;2023-03-02T01:19:21;12.53;;;7.90;;
59788;SDS011;47353;51.614;5.530;2023-03-02T01:21:46;13.77;;;8.40;;
59788;SDS011;47353;51.614;5.530;2023-03-02T01:24:11;12.77;;;7.87;;
59788;SDS011;47353;51.614;5.530;2023-03-02T01:26:37;15.70;;;8.83;;
59788;SDS011;47353;51.614;5.530;2023-03-02T01:29:02;15.33;;;8.37;;
59788;SDS011;47353;51.614;5.530;2023-03-02T01:31:28;13.77;;;7.80;;
59788;SDS011;47353;51.614;5.530;2023-03-02T01:33:54;13.67;;;8.23;;
59788;SDS011;47353;51.614;5.530;2023-03-02T01:36:20;16.40;;;8.70;;
59788;SDS011;47353;51.614;5.530;2023-03-02T01:38:46;14.67;;;8.70;;
59788;SDS011;47353;51.614;5.530;2023-03-02T01:41:11;13.97;;;8.50;;
59788;SDS011;47353;51.614;5.530;2023-03-02T01:43:37;14.77;;;8.57;;
59788;SDS011;47353;51.614;5.530;2023-03-02T01:46:04;16.27;;;8.97;;
59788;SDS011;47353;51.614;5.530;2023-03-02T01:48:36;14.93;;;8.40;;
59788;SDS011;47353;51.614;5.530;2023-03-02T01:51:09;18.10;;;9.00;;
59788;SDS011;47353;51.614;5.530;2023-03-02T01:53:38;14.00;;;8.63;;
59788;SDS011;47353;51.614;5.530;2023-03-02T01:56:10;15.80;;;9.03;;
59788;SDS011;47353;51.614;5.530;2023-03-02T01:58:48;17.97;;;10.10;;
59788;SDS011;47353;51.614;5.530;2023-03-02T02:01:18;17.63;;;9.87;;
59788;SDS011;47353;51.614;5.530;2023-03-02T02:03:44;18.73;;;10.17;;
59788;SDS011;47353;51.614;5.530;2023-03-02T02:06:17;17.30;;;10.60;;
59788;SDS011;47353;51.614;5.530;2023-03-02T02:08:48;19.57;;;10.17;;
59788;SDS011;47353;51.614;5.530;2023-03-02T02:11:14;20.10;;;10.67;;
59788;SDS011;47353;51.614;5.530;2023-03-02T02:13:39;22.23;;;11.87;;
59788;SDS011;47353;51.614;5.530;2023-03-02T02:16:05;23.10;;;11.17;;
59788;SDS011;47353;51.614;5.530;2023-03-02T02:18:31;20.50;;;12.17;;
59788;SDS011;47353;51.614;5.530;2023-03-02T02:20:59;24.60;;;12.90;;
59788;SDS011;47353;51.614;5.530;2023-03-02T02:23:27;26.03;;;13.70;;
59788;SDS011;47353;51.614;5.530;2023-03-02T02:28:42;29.77;;;14.90;;
59788;SDS011;47353;51.614;5.530;2023-03-02T02:33:44;32.70;;;16.80;;
59788;SDS011;47353;51.614;5.530;2023-03-02T02:36:23;34.63;;;17.03;;
59788;SDS011;47353;51.614;5.530;2023-03-02T02:38:57;35.57;;;17.20;;
59788;SDS011;47353;51.614;5.530;2023-03-02T02:41:27;38.67;;;17.50;;
59788;SDS011;47353;51.614;5.530;2023-03-02T02:43:56;40.50;;;19.57;;
59788;SDS011;47353;51.614;5.530;2023-03-02T02:46:22;40.40;;;19.27;;
59788;SDS011;47353;51.614;5.530;2023-03-02T02:48:49;43.93;;;21.60;;
59788;SDS011;47353;51.614;5.530;2023-03-02T02:51:17;43.23;;;21.03;;
59788;SDS011;47353;51.614;5.530;2023-03-02T02:56:12;44.73;;;21.30;;
59788;SDS011;47353;51.614;5.530;2023-03-02T02:58:41;44.40;;;22.10;;
59788;SDS011;47353;51.614;5.530;2023-03-02T03:01:13;46.13;;;21.10;;
59788;SDS011;47353;51.614;5.530;2023-03-02T03:03:42;48.73;;;22.40;;
59788;SDS011;47353;51.614;5.530;2023-03-02T03:06:19;48.70;;;23.63;;
59788;SDS011;47353;51.614;5.530;2023-03-02T03:08:51;52.17;;;23.17;;
59788;SDS011;47353;51.614;5.530;2023-03-02T03:11:27;49.37;;;23.13;;
59788;SDS011;47353;51.614;5.530;2023-03-02T03:14:02;52.83;;;25.23;;
59788;SDS011;47353;51.614;5.530;2023-03-02T03:16:32;53.73;;;23.53;;
59788;SDS011;47353;51.614;5.530;2023-03-02T03:19:05;53.73;;;24.37;;
59788;SDS011;47353;51.614;5.530;2023-03-02T03:21:39;53.73;;;25.37;;
59788;SDS011;47353;51.614;5.530;2023-03-02T03:24:05;50.73;;;24.07;;
59788;SDS011;47353;51.614;5.530;2023-03-02T03:26:30;54.60;;;23.93;;
59788;SDS011;47353;51.614;5.530;2023-03-02T03:28:56;58.40;;;26.67;;
59788;SDS011;47353;51.614;5.530;2023-03-02T03:31:22;54.90;;;25.03;;
59788;SDS011;47353;51.614;5.530;2023-03-02T03:33:49;52.80;;;23.80;;
59788;SDS011;47353;51.614;5.530;2023-03-02T03:36:14;54.87;;;24.87;;
59788;SDS011;47353;51.614;5.530;2023-03-02T03:38:41;56.50;;;24.73;;
59788;SDS011;47353;51.614;5.530;2023-03-02T03:41:07;54.90;;;23.90;;
59788;SDS011;47353;51.614;5.530;2023-03-02T03:43:33;58.30;;;25.47;;
59788;SDS011;47353;51.614;5.530;2023-03-02T03:45:58;51.67;;;22.53;;
59788;SDS011;47353;51.614;5.530;2023-03-02T03:48:23;55.07;;;23.13;;
59788;SDS011;47353;51.614;5.530;2023-03-02T03:50:49;52.80;;;24.73;;
59788;SDS011;47353;51.614;5.530;2023-03-02T03:53:14;56.23;;;25.00;;
59788;SDS011;47353;51.614;5.530;2023-03-02T03:55:40;57.33;;;25.60;;
59788;SDS011;47353;51.614;5.530;2023-03-02T03:58:05;55.97;;;23.53;;
59788;SDS011;47353;51.614;5.530;2023-03-02T04:00:31;53.33;;;24.10;;
59788;SDS011;47353;51.614;5.530;2023-03-02T04:02:56;52.63;;;23.80;;
59788;SDS011;47353;51.614;5.530;2023-03-02T04:05:22;55.50;;;25.60;;
59788;SDS011;47353;51.614;5.530;2023-03-02T04:07:47;55.27;;;24.67;;
59788;SDS011;47353;51.614;5.530;2023-03-02T04:10:13;53.47;;;24.57;;
59788;SDS011;47353;51.614;5.530;2023-03-02T04:12:38;58.03;;;24.17;;
59788;SDS011;47353;51.614;5.530;2023-03-02T04:15:06;51.30;;;23.27;;
59788;SDS011;47353;51.614;5.530;2023-03-02T04:17:33;54.57;;;24.20;;
59788;SDS011;47353;51.614;5.530;2023-03-02T04:19:58;52.57;;;23.63;;
59788;SDS011;47353;51.614;5.530;2023-03-02T04:22:24;52.60;;;23.83;;
59788;SDS011;47353;51.614;5.530;2023-03-02T04:24:51;51.83;;;23.37;;
59788;SDS011;47353;51.614;5.530;2023-03-02T04:27:16;48.07;;;21.87;;
59788;SDS011;47353;51.614;5.530;2023-03-02T04:29:43;55.17;;;23.93;;
59788;SDS011;47353;51.614;5.530;2023-03-02T04:32:09;50.80;;;22.80;;
59788;SDS011;47353;51.614;5.530;2023-03-02T04:34:35;46.90;;;22.37;;
59788;SDS011;47353;51.614;5.530;2023-03-02T04:37:01;54.37;;;22.93;;
59788;SDS011;47353;51.614;5.530;2023-03-02T04:39:27;50.50;;;23.20;;
59788;SDS011;47353;51.614;5.530;2023-03-02T04:41:52;50.80;;;22.17;;
59788;SDS011;47353;51.614;5.530;2023-03-02T04:44:18;49.93;;;22.53;;
59788;SDS011;47353;51.614;5.530;2023-03-02T04:46:45;50.90;;;23.17;;
59788;SDS011;47353;51.614;5.530;2023-03-02T04:49:11;52.50;;;23.30;;
59788;SDS011;47353;51.614;5.530;2023-03-02T04:51:39;52.90;;;23.27;;
59788;SDS011;47353;51.614;5.530;2023-03-02T04:54:07;55.90;;;23.97;;
59788;SDS011;47353;51.614;5.530;2023-03-02T04:56:39;55.50;;;23.55;;
59788;SDS011;47353;51.614;5.530;2023-03-02T04:59:04;56.33;;;24.67;;
59788;SDS011;47353;51.614;5.530;2023-03-02T05:01:30;51.30;;;22.70;;
59788;SDS011;47353;51.614;5.530;2023-03-02T05:03:55;57.83;;;24.03;;
59788;SDS011;47353;51.614;5.530;2023-03-02T05:06:21;57.57;;;23.40;;
59788;SDS011;47353;51.614;5.530;2023-03-02T05:08:49;65.60;;;25.50;;
59788;SDS011;47353;51.614;5.530;2023-03-02T05:11:16;58.13;;;24.90;;
59788;SDS011;47353;51.614;5.530;2023-03-02T05:13:56;59.27;;;24.37;;
59788;SDS011;47353;51.614;5.530;2023-03-02T05:16:24;59.67;;;24.57;;
59788;SDS011;47353;51.614;5.530;2023-03-02T05:18:53;62.80;;;24.17;;
59788;SDS011;47353;51.614;5.530;2023-03-02T05:21:19;62.80;;;23.80;;
59788;SDS011;47353;51.614;5.530;2023-03-02T05:23:45;60.37;;;24.60;;
59788;SDS011;47353;51.614;5.530;2023-03-02T05:26:10;65.30;;;25.60;;
59788;SDS011;47353;51.614;5.530;2023-03-02T05:28:36;66.20;;;25.37;;
59788;SDS011;47353;51.614;5.530;2023-03-02T05:31:03;68.87;;;27.00;;
59788;SDS011;47353;51.614;5.530;2023-03-02T05:33:28;64.57;;;25.30;;
59788;SDS011;47353;51.614;5.530;2023-03-02T05:35:54;65.70;;;25.80;;
59788;SDS011;47353;51.614;5.530;2023-03-02T05:38:19;66.37;;;26.30;;
59788;SDS011;47353;51.614;5.530;2023-03-02T05:40:45;63.53;;;24.43;;
59788;SDS011;47353;51.614;5.530;2023-03-02T05:43:15;67.77;;;26.43;;
59788;SDS011;47353;51.614;5.530;2023-03-02T05:45:43;64.97;;;26.27;;
59788;SDS011;47353;51.614;5.530;2023-03-02T05:48:09;72.37;;;26.37;;
59788;SDS011;47353;51.614;5.530;2023-03-02T05:50:34;68.63;;;26.40;;
59788;SDS011;47353;51.614;5.530;2023-03-02T05:53:00;68.80;;;26.40;;
59788;SDS011;47353;51.614;5.530;2023-03-02T05:55:26;69.53;;;26.23;;
59788;SDS011;47353;51.614;5.530;2023-03-02T05:57:52;61.47;;;24.93;;
59788;SDS011;47353;51.614;5.530;2023-03-02T06:00:18;70.70;;;26.27;;
59788;SDS011;47353;51.614;5.530;2023-03-02T06:02:44;65.47;;;26.13;;
59788;SDS011;47353;51.614;5.530;2023-03-02T06:05:10;67.83;;;27.60;;
59788;SDS011;47353;51.614;5.530;2023-03-02T06:07:38;71.33;;;26.37;;
59788;SDS011;47353;51.614;5.530;2023-03-02T06:10:05;69.17;;;26.43;;
59788;SDS011;47353;51.614;5.530;2023-03-02T06:12:33;73.63;;;26.90;;
59788;SDS011;47353;51.614;5.530;2023-03-02T06:14:58;74.50;;;27.80;;
59788;SDS011;47353;51.614;5.530;2023-03-02T06:17:24;64.33;;;25.47;;
59788;SDS011;47353;51.614;5.530;2023-03-02T06:19:50;71.90;;;26.80;;
59788;SDS011;47353;51.614;5.530;2023-03-02T06:22:16;72.03;;;26.80;;
59788;SDS011;47353;51.614;5.530;2023-03-02T06:24:41;66.87;;;26.23;;
59788;SDS011;47353;51.614;5.530;2023-03-02T06:27:07;75.40;;;27.23;;
59788;SDS011;47353;51.614;5.530;2023-03-02T06:29:32;69.93;;;26.90;;
59788;SDS011;47353;51.614;5.530;2023-03-02T06:31:57;73.20;;;27.93;;
59788;SDS011;47353;51.614;5.530;2023-03-02T06:34:23;70.07;;;25.63;;
59788;SDS011;47353;51.614;5.530;2023-03-02T06:36:48;69.80;;;25.50;;
59788;SDS011;47353;51.614;5.530;2023-03-02T06:39:13;69.57;;;27.10;;
59788;SDS011;47353;51.614;5.530;2023-03-02T06:41:42;67.23;;;24.57;;
59788;SDS011;47353;51.614;5.530;2023-03-02T06:44:11;71.93;;;25.97;;
59788;SDS011;47353;51.614;5.530;2023-03-02T06:46:38;69.87;;;26.87;;
59788;SDS011;47353;51.614;5.530;2023-03-02T06:49:04;62.33;;;24.30;;
59788;SDS011;47353;51.614;5.530;2023-03-02T06:51:30;69.17;;;25.70;;
59788;SDS011;47353;51.614;5.530;2023-03-02T06:53:56;65.90;;;25.00;;
59788;SDS011;47353;51.614;5.530;2023-03-02T06:56:22;69.63;;;26.20;;
59788;SDS011;47353;51.614;5.530;2023-03-02T06:58:48;66.17;;;25.47;;
59788;SDS011;47353;51.614;5.530;2023-03-02T07:01:13;65.97;;;26.30;;
59788;SDS011;47353;51.614;5.530;2023-03-02T07:03:39;65.80;;;25.40;;
59788;SDS011;47353;51.614;5.530;2023-03-02T07:06:04;66.77;;;24.90;;
59788;SDS011;47353;51.614;5.530;2023-03-02T07:08:30;64.87;;;25.77;;
59788;SDS011;47353;51.614;5.530;2023-03-02T07:10:55;66.97;;;25.87;;
59788;SDS011;47353;51.614;5.530;2023-03-02T07:13:21;66.83;;;26.27;;
59788;SDS011;47353;51.614;5.530;2023-03-02T07:15:46;65.70;;;25.93;;
59788;SDS011;47353;51.614;5.530;2023-03-02T07:18:12;63.63;;;25.37;;
59788;SDS011;47353;51.614;5.530;2023-03-02T07:20:37;65.47;;;25.07;;
59788;SDS011;47353;51.614;5.530;2023-03-02T07:23:04;64.13;;;25.83;;
59788;SDS011;47353;51.614;5.530;2023-03-02T07:25:30;66.00;;;25.57;;
59788;SDS011;47353;51.614;5.530;2023-03-02T07:27:56;61.23;;;24.97;;
59788;SDS011;47353;51.614;5.530;2023-03-02T07:30:22;59.77;;;24.33;;
59788;SDS011;47353;51.614;5.530;2023-03-02T07:32:48;62.93;;;25.67;;
59788;SDS011;47353;51.614;5.530;2023-03-02T07:35:13;58.10;;;23.97;;
59788;SDS011;47353;51.614;5.530;2023-03-02T07:37:39;58.70;;;23.17;;
59788;SDS011;47353;51.614;5.530;2023-03-02T07:40:04;61.37;;;24.87;;
59788;SDS011;47353;51.614;5.530;2023-03-02T07:42:31;55.80;;;22.87;;
59788;SDS011;47353;51.614;5.530;2023-03-02T07:44:57;52.63;;;22.60;;
59788;SDS011;47353;51.614;5.530;2023-03-02T07:47:22;55.37;;;23.43;;
59788;SDS011;47353;51.614;5.530;2023-03-02T07:49:48;56.27;;;23.57;;
59788;SDS011;47353;51.614;5.530;2023-03-02T07:52:14;55.30;;;23.13;;
59788;SDS011;47353;51.614;5.530;2023-03-02T07:54:39;51.33;;;22.90;;
59788;SDS011;47353;51.614;5.530;2023-03-02T07:57:05;53.37;;;23.03;;
59788;SDS011;47353;51.614;5.530;2023-03-02T07:59:30;52.50;;;22.73;;
59788;SDS011;47353;51.614;5.530;2023-03-02T08:01:56;49.25;;;22.17;;
59788;SDS011;47353;51.614;5.530;2023-03-02T08:04:22;49.65;;;22.60;;
59788;SDS011;47353;51.614;5.530;2023-03-02T08:06:48;48.70;;;22.67;;
59788;SDS011;47353;51.614;5.530;2023-03-02T08:09:13;42.92;;;18.95;;
59788;SDS011;47353;51.614;5.530;2023-03-02T08:11:39;43.50;;;20.48;;
59788;SDS011;47353;51.614;5.530;2023-03-02T08:14:05;43.83;;;20.08;;
59788;SDS011;47353;51.614;5.530;2023-03-02T08:16:31;43.22;;;21.08;;
59788;SDS011;47353;51.614;5.530;2023-03-02T08:18:57;41.13;;;20.33;;
59788;SDS011;47353;51.614;5.530;2023-03-02T08:21:23;40.38;;;20.38;;
59788;SDS011;47353;51.614;5.530;2023-03-02T08:23:49;39.53;;;20.10;;
59788;SDS011;47353;51.614;5.530;2023-03-02T08:26:16;38.13;;;20.05;;
59788;SDS011;47353;51.614;5.530;2023-03-02T08:28:42;40.58;;;20.27;;
59788;SDS011;47353;51.614;5.530;2023-03-02T08:31:08;36.92;;;19.08;;
59788;SDS011;47353;51.614;5.530;2023-03-02T08:33:34;34.92;;;18.58;;
59788;SDS011;47353;51.614;5.530;2023-03-02T08:36:01;32.05;;;17.73;;
59788;SDS011;47353;51.614;5.530;2023-03-02T08:38:31;33.72;;;18.13;;
59788;SDS011;47353;51.614;5.530;2023-03-02T08:40:58;32.97;;;18.27;;
59788;SDS011;47353;51.614;5.530;2023-03-02T08:43:27;32.92;;;17.85;;
59788;SDS011;47353;51.614;5.530;2023-03-02T08:45:54;31.60;;;17.40;;
59788;SDS011;47353;51.614;5.530;2023-03-02T08:48:23;30.50;;;17.73;;
59788;SDS011;47353;51.614;5.530;2023-03-02T08:50:54;29.42;;;17.65;;
59788;SDS011;47353;51.614;5.530;2023-03-02T08:53:27;28.27;;;16.65;;
59788;SDS011;47353;51.614;5.530;2023-03-02T08:55:54;28.02;;;16.42;;
59788;SDS011;47353;51.614;5.530;2023-03-02T08:58:20;29.23;;;16.98;;
59788;SDS011;47353;51.614;5.530;2023-03-02T09:00:46;28.40;;;16.40;;
59788;SDS011;47353;51.614;5.530;2023-03-02T09:03:11;29.90;;;16.60;;
59788;SDS011;47353;51.614;5.530;2023-03-02T09:05:37;25.58;;;15.30;;
59788;SDS011;47353;51.614;5.530;2023-03-02T09:08:02;27.15;;;15.77;;
59788;SDS011;47353;51.614;5.530;2023-03-02T09:10:30;25.92;;;16.30;;
59788;SDS011;47353;51.614;5.530;2023-03-02T09:12:55;25.13;;;15.82;;
59788;SDS011;47353;51.614;5.530;2023-03-02T09:15:20;26.38;;;16.60;;
59788;SDS011;47353;51.614;5.530;2023-03-02T09:17:46;24.10;;;15.45;;
59788;SDS011;47353;51.614;5.530;2023-03-02T09:20:11;26.50;;;15.38;;
59788;SDS011;47353;51.614;5.530;2023-03-02T09:22:38;25.08;;;14.52;;
59788;SDS011;47353;51.614;5.530;2023-03-02T09:25:04;23.35;;;14.75;;
59788;SDS011;47353;51.614;5.530;2023-03-02T09:27:30;23.15;;;14.35;;
59788;SDS011;47353;51.614;5.530;2023-03-02T09:29:56;21.77;;;14.75;;
59788;SDS011;47353;51.614;5.530;2023-03-02T09:32:21;25.00;;;14.50;;
59788;SDS011;47353;51.614;5.530;2023-03-02T09:34:47;25.02;;;14.93;;
59788;SDS011;47353;51.614;5.530;2023-03-02T09:37:12;23.73;;;14.52;;
59788;SDS011;47353;51.614;5.530;2023-03-02T09:39:38;23.85;;;13.85;;
59788;SDS011;47353;51.614;5.530;2023-03-02T09:47:24;20.88;;;13.95;;
59788;SDS011;47353;51.614;5.530;2023-03-02T09:52:29;21.40;;;13.68;;
59788;SDS011;47353;51.614;5.530;2023-03-02T09:55:19;23.77;;;14.45;;
59788;SDS011;47353;51.614;5.530;2023-03-02T09:57:46;21.90;;;14.43;;
59788;SDS011;47353;51.614;5.530;2023-03-02T10:00:25;19.60;;;14.00;;
59788;SDS011;47353;51.614;5.530;2023-03-02T10:02:56;20.13;;;14.38;;
59788;SDS011;47353;51.614;5.530;2023-03-02T10:05:33;18.00;;;13.07;;
59788;SDS011;47353;51.614;5.530;2023-03-02T10:08:20;17.40;;;12.60;;
59788;SDS011;47353;51.614;5.530;2023-03-02T10:13:48;18.55;;;12.15;;
59788;SDS011;47353;51.614;5.530;2023-03-02T10:16:33;18.75;;;13.07;;
59788;SDS011;47353;51.614;5.530;2023-03-02T10:19:07;17.98;;;12.32;;
59788;SDS011;47353;51.614;5.530;2023-03-02T10:21:41;17.35;;;12.23;;
59788;SDS011;47353;51.614;5.530;2023-03-02T10:24:14;17.80;;;12.23;;
59788;SDS011;47353;51.614;5.530;2023-03-02T10:26:55;17.77;;;12.27;;
59788;SDS011;47353;51.614;5.530;2023-03-02T10:32:15;17.45;;;12.05;;
59788;SDS011;47353;51.614;5.530;2023-03-02T10:34:41;17.35;;;12.43;;
59788;SDS011;47353;51.614;5.530;2023-03-02T10:37:10;15.63;;;11.57;;
59788;SDS011;47353;51.614;5.530;2023-03-02T10:39:39;15.45;;;11.68;;
59788;SDS011;47353;51.614;5.530;2023-03-02T10:42:05;18.08;;;12.40;;
59788;SDS011;47353;51.614;5.530;2023-03-02T10:44:38;17.33;;;12.48;;
59788;SDS011;47353;51.614;5.530;2023-03-02T10:47:06;18.85;;;11.57;;
59788;SDS011;47353;51.614;5.530;2023-03-02T10:49:42;15.25;;;11.73;;
59788;SDS011;47353;51.614;5.530;2023-03-02T10:52:12;16.70;;;12.40;;
59788;SDS011;47353;51.614;5.530;2023-03-02T10:54:40;15.38;;;11.52;;
59788;SDS011;47353;51.614;5.530;2023-03-02T11:00:02;17.48;;;13.10;;
59788;SDS011;47353;51.614;5.530;2023-03-02T11:02:46;17.10;;;12.80;;
59788;SDS011;47353;51.614;5.530;2023-03-02T11:07:57;19.20;;;13.10;;
59788;SDS011;47353;51.614;5.530;2023-03-02T11:10:24;16.83;;;12.60;;
59788;SDS011;47353;51.614;5.530;2023-03-02T11:12:56;17.67;;;12.60;;
59788;SDS011;47353;51.614;5.530;2023-03-02T11:15:24;15.68;;;12.48;;
59788;SDS011;47353;51.614;5.530;2023-03-02T11:17:58;16.88;;;12.05;;
59788;SDS011;47353;51.614;5.530;2023-03-02T11:20:35;16.13;;;11.23;;
59788;SDS011;47353;51.614;5.530;2023-03-02T11:26:00;15.73;;;11.60;;
59788;SDS011;47353;51.614;5.530;2023-03-02T11:28:45;15.90;;;11.55;;
59788;SDS011;47353;51.614;5.530;2023-03-02T11:31:19;18.33;;;11.73;;
59788;SDS011;47353;51.614;5.530;2023-03-02T11:33:56;15.80;;;12.45;;
59788;SDS011;47353;51.614;5.530;2023-03-02T11:42:20;16.10;;;11.65;;
59788;SDS011;47353;51.614;5.530;2023-03-02T11:44:56;15.65;;;11.75;;
59788;SDS011;47353;51.614;5.530;2023-03-02T11:47:26;15.65;;;12.55;;
59788;SDS011;47353;51.614;5.530;2023-03-02T11:49:56;18.48;;;11.80;;
59788;SDS011;47353;51.614;5.530;2023-03-02T11:52:26;14.48;;;11.90;;
59788;SDS011;47353;51.614;5.530;2023-03-02T12:02:56;14.43;;;12.00;;
59788;SDS011;47353;51.614;5.530;2023-03-02T12:05:23;16.00;;;12.52;;
59788;SDS011;47353;51.614;5.530;2023-03-02T12:10:43;14.07;;;11.57;;
59788;SDS011;47353;51.614;5.530;2023-03-02T12:13:25;15.40;;;11.52;;
59788;SDS011;47353;51.614;5.530;2023-03-02T12:15:53;14.75;;;11.70;;
59788;SDS011;47353;51.614;5.530;2023-03-02T12:23:28;13.32;;;10.40;;
59788;SDS011;47353;51.614;5.530;2023-03-02T12:26:05;16.02;;;10.68;;
59788;SDS011;47353;51.614;5.530;2023-03-02T12:29:03;13.80;;;10.40;;
59788;SDS011;47353;51.614;5.530;2023-03-02T12:37:00;11.52;;;8.95;;
59788;SDS011;47353;51.614;5.530;2023-03-02T12:39:58;14.88;;;9.52;;
59788;SDS011;47353;51.614;5.530;2023-03-02T12:42:49;12.90;;;9.77;;
59788;SDS011;47353;51.614;5.530;2023-03-02T12:45:50;12.68;;;9.70;;
59788;SDS011;47353;51.614;5.530;2023-03-02T12:48:27;14.35;;;10.15;;
59788;SDS011;47353;51.614;5.530;2023-03-02T12:50:58;11.32;;;10.07;;
59788;SDS011;47353;51.614;5.530;2023-03-02T12:53:25;12.23;;;9.55;;
59788;SDS011;47353;51.614;5.530;2023-03-02T12:55:51;12.27;;;9.95;;
59788;SDS011;47353;51.614;5.530;2023-03-02T12:58:18;11.95;;;9.50;;
59788;SDS011;47353;51.614;5.530;2023-03-02T13:00:56;11.38;;;9.70;;
59788;SDS011;47353;51.614;5.530;2023-03-02T13:03:25;10.30;;;8.95;;
59788;SDS011;47353;51.614;5.530;2023-03-02T13:06:10;11.40;;;9.55;;
59788;SDS011;47353;51.614;5.530;2023-03-02T13:08:41;11.27;;;8.88;;
59788;SDS011;47353;51.614;5.530;2023-03-02T13:11:08;10.85;;;8.50;;
59788;SDS011;47353;51.614;5.530;2023-03-02T13:13:38;10.82;;;9.00;;
59788;SDS011;47353;51.614;5.530;2023-03-02T13:18:46;11.60;;;8.38;;
59788;SDS011;47353;51.614;5.530;2023-03-02T13:21:14;10.02;;;8.07;;
59788;SDS011;47353;51.614;5.530;2023-03-02T13:23:43;10.40;;;9.00;;
59788;SDS011;47353;51.614;5.530;2023-03-02T13:26:30;10.15;;;8.27;;
59788;SDS011;47353;51.614;5.530;2023-03-02T13:29:00;9.95;;;8.52;;
59788;SDS011;47353;51.614;5.530;2023-03-02T13:31:43;10.38;;;8.68;;
59788;SDS011;47353;51.614;5.530;2023-03-02T13:34:22;10.98;;;8.50;;
59788;SDS011;47353;51.614;5.530;2023-03-02T13:36:49;9.68;;;8.07;;
59788;SDS011;47353;51.614;5.530;2023-03-02T13:39:20;10.82;;;8.25;;
59788;SDS011;47353;51.614;5.530;2023-03-02T13:41:53;11.05;;;8.38;;
59788;SDS011;47353;51.614;5.530;2023-03-02T13:46:55;9.73;;;7.80;;
59788;SDS011;47353;51.614;5.530;2023-03-02T13:49:39;10.95;;;7.90;;
59788;SDS011;47353;51.614;5.530;2023-03-02T13:52:05;9.68;;;7.90;;
59788;SDS011;47353;51.614;5.530;2023-03-02T13:54:39;11.02;;;8.40;;
59788;SDS011;47353;51.614;5.530;2023-03-02T13:57:09;10.52;;;8.23;;
59788;SDS011;47353;51.614;5.530;2023-03-02T13:59:40;10.85;;;8.00;;
59788;SDS011;47353;51.614;5.530;2023-03-02T14:02:21;10.70;;;7.55;;
59788;SDS011;47353;51.614;5.530;2023-03-02T14:04:48;10.48;;;8.10;;
59788;SDS011;47353;51.614;5.530;2023-03-02T14:07:14;8.32;;;7.43;;
59788;SDS011;47353;51.614;5.530;2023-03-02T14:09:41;9.93;;;7.55;;
59788;SDS011;47353;51.614;5.530;2023-03-02T14:12:07;9.48;;;7.40;;
59788;SDS011;47353;51.614;5.530;2023-03-02T14:14:33;9.73;;;7.70;;
59788;SDS011;47353;51.614;5.530;2023-03-02T14:17:03;10.13;;;7.50;;
59788;SDS011;47353;51.614;5.530;2023-03-02T14:19:38;11.77;;;7.32;;
59788;SDS011;47353;51.614;5.530;2023-03-02T14:22:04;11.13;;;7.40;;
59788;SDS011;47353;51.614;5.530;2023-03-02T14:24:29;9.07;;;7.57;;
59788;SDS011;47353;51.614;5.530;2023-03-02T14:26:55;10.57;;;7.78;;
59788;SDS011;47353;51.614;5.530;2023-03-02T14:31:49;9.35;;;7.50;;
59788;SDS011;47353;51.614;5.530;2023-03-02T14:34:15;11.73;;;7.70;;
59788;SDS011;47353;51.614;5.530;2023-03-02T14:36:42;10.45;;;7.60;;
59788;SDS011;47353;51.614;5.530;2023-03-02T14:39:16;9.40;;;7.80;;
59788;SDS011;47353;51.614;5.530;2023-03-02T14:41:48;9.82;;;7.47;;
59788;SDS011;47353;51.614;5.530;2023-03-02T14:44:15;11.48;;;7.47;;
59788;SDS011;47353;51.614;5.530;2023-03-02T14:46:40;11.32;;;8.10;;
59788;SDS011;47353;51.614;5.530;2023-03-02T14:49:07;9.02;;;7.50;;
59788;SDS011;47353;51.614;5.530;2023-03-02T14:51:33;9.35;;;7.45;;
59788;SDS011;47353;51.614;5.530;2023-03-02T14:54:01;11.57;;;8.02;;
59788;SDS011;47353;51.614;5.530;2023-03-02T14:56:29;11.80;;;8.05;;
59788;SDS011;47353;51.614;5.530;2023-03-02T14:58:56;10.80;;;8.30;;
59788;SDS011;47353;51.614;5.530;2023-03-02T15:01:23;11.63;;;8.77;;
59788;SDS011;47353;51.614;5.530;2023-03-02T15:03:49;11.00;;;8.40;;
59788;SDS011;47353;51.614;5.530;2023-03-02T15:08:49;11.35;;;9.35;;
59788;SDS011;47353;51.614;5.530;2023-03-02T15:11:14;12.75;;;9.45;;
59788;SDS011;47353;51.614;5.530;2023-03-02T15:13:40;13.77;;;10.10;;
59788;SDS011;47353;51.614;5.530;2023-03-02T15:16:07;13.48;;;9.50;;
59788;SDS011;47353;51.614;5.530;2023-03-02T15:18:34;11.05;;;9.60;;
59788;SDS011;47353;51.614;5.530;2023-03-02T15:21:00;13.13;;;10.30;;
59788;SDS011;47353;51.614;5.530;2023-03-02T15:23:25;13.10;;;10.38;;
59788;SDS011;47353;51.614;5.530;2023-03-02T15:25:50;14.00;;;10.18;;
59788;SDS011;47353;51.614;5.530;2023-03-02T15:28:16;12.50;;;9.73;;
59788;SDS011;47353;51.614;5.530;2023-03-02T15:30:41;13.40;;;10.25;;
59788;SDS011;47353;51.614;5.530;2023-03-02T15:33:07;15.15;;;10.77;;
59788;SDS011;47353;51.614;5.530;2023-03-02T15:35:32;12.95;;;10.07;;
59788;SDS011;47353;51.614;5.530;2023-03-02T15:37:58;11.82;;;9.25;;
59788;SDS011;47353;51.614;5.530;2023-03-02T15:40:26;12.98;;;9.70;;